createdAt,value
2018-09-18T00:00:05.632Z,20.24
2018-09-18T00:01:05.600Z,20.14
2018-09-18T00:02:05.560Z,20.19
2018-09-18T00:03:05.531Z,20.19
2018-09-18T00:04:05.491Z,20.26
2018-09-18T00:05:05.463Z,20.25
2018-09-18T00:06:05.432Z,20.29
2018-09-18T00:07:05.393Z,20.37
2018-09-18T00:08:13.996Z,20.39
2018-09-18T00:09:58.713Z,20.41
2018-09-18T00:10:58.649Z,20.40
2018-09-18T00:11:58.616Z,20.43
2018-09-18T00:12:58.586Z,20.36
2018-09-18T00:13:58.549Z,20.40
2018-09-18T00:14:58.515Z,20.41
2018-09-18T00:15:58.485Z,20.43
2018-09-18T00:16:58.456Z,20.36
2018-09-18T00:17:58.422Z,20.40
2018-09-18T00:18:58.382Z,20.40
2018-09-18T00:19:58.351Z,20.43
2018-09-18T00:20:58.315Z,20.52
2018-09-18T00:21:58.289Z,20.60
2018-09-18T00:22:58.258Z,20.52
2018-09-18T00:23:58.222Z,20.66
2018-09-18T00:24:58.191Z,20.65
2018-09-18T00:25:58.154Z,20.75
2018-09-18T00:26:58.121Z,20.63
2018-09-18T00:27:58.086Z,20.62
2018-09-18T00:28:58.054Z,20.63
2018-09-18T00:29:58.026Z,20.60
2018-09-18T00:30:57.990Z,20.58
2018-09-18T00:31:57.960Z,20.60
2018-09-18T00:32:57.924Z,20.59
2018-09-18T00:33:57.894Z,20.63
2018-09-18T00:34:57.858Z,20.63
2018-09-18T00:35:57.832Z,20.60
2018-09-18T00:36:57.797Z,20.52
2018-09-18T00:37:57.757Z,20.56
2018-09-18T00:38:57.729Z,20.60
2018-09-18T00:39:57.691Z,20.52
2018-09-18T00:40:57.660Z,20.52
2018-09-18T00:41:57.632Z,20.60
2018-09-18T00:42:57.601Z,20.62
2018-09-18T00:43:57.562Z,20.66
2018-09-18T00:44:57.533Z,20.51
2018-09-18T00:45:57.494Z,20.50
2018-09-18T00:46:57.466Z,20.50
2018-09-18T00:47:57.430Z,20.52
2018-09-18T00:48:57.402Z,20.55
2018-09-18T00:49:57.362Z,20.59
2018-09-18T00:50:57.332Z,20.50
2018-09-18T00:51:57.297Z,20.60
2018-09-18T00:52:57.262Z,20.58
2018-09-18T00:53:57.243Z,20.60
2018-09-18T00:54:57.201Z,20.60
2018-09-18T00:55:57.171Z,20.62
2018-09-18T00:56:57.138Z,20.60
2018-09-18T00:57:57.099Z,20.59
2018-09-18T00:58:57.071Z,20.58
2018-09-18T00:59:57.036Z,20.62
2018-09-18T01:00:57.006Z,20.58
2018-09-18T01:01:56.974Z,20.48
2018-09-18T01:02:56.940Z,20.51
2018-09-18T01:03:56.906Z,20.51
2018-09-18T01:04:56.869Z,20.52
2018-09-18T01:05:56.844Z,20.52
2018-09-18T01:06:56.809Z,20.56
2018-09-18T01:07:56.779Z,20.52
2018-09-18T01:08:56.746Z,20.47
2018-09-18T01:09:56.706Z,20.43
2018-09-18T01:10:56.674Z,20.51
2018-09-18T01:11:56.644Z,20.47
2018-09-18T01:12:56.607Z,20.43
2018-09-18T01:13:56.582Z,20.40
2018-09-18T01:14:56.550Z,20.39
2018-09-18T01:15:56.516Z,20.37
2018-09-18T01:16:56.482Z,20.39
2018-09-18T01:17:56.442Z,20.40
2018-09-18T01:18:56.426Z,20.37
2018-09-18T01:19:56.381Z,20.31
2018-09-18T01:20:56.351Z,20.28
2018-09-18T01:21:56.313Z,20.26
2018-09-18T01:22:56.281Z,20.29
2018-09-18T01:23:56.248Z,20.25
2018-09-18T01:24:56.213Z,20.18
2018-09-18T01:25:56.189Z,20.13
2018-09-18T01:26:56.151Z,20.18
2018-09-18T01:27:56.119Z,20.19
2018-09-18T01:28:56.088Z,20.09
2018-09-18T01:29:56.050Z,20.02
2018-09-18T01:30:56.017Z,20.09
2018-09-18T01:31:55.986Z,20.06
2018-09-18T01:32:55.951Z,20.06
2018-09-18T01:33:55.925Z,19.99
2018-09-18T01:34:55.891Z,19.92
2018-09-18T01:35:55.856Z,20.00
2018-09-18T01:36:55.823Z,19.95
2018-09-18T01:37:55.799Z,19.89
2018-09-18T01:38:55.758Z,19.89
2018-09-18T01:39:55.726Z,19.92
2018-09-18T01:40:55.694Z,19.85
2018-09-18T01:41:55.656Z,19.86
2018-09-18T01:42:55.630Z,19.84
2018-09-18T01:43:55.676Z,19.85
2018-09-18T01:44:55.557Z,19.82
2018-09-18T01:45:55.530Z,19.88
2018-09-18T01:46:55.496Z,19.84
2018-09-18T01:47:55.463Z,19.86
2018-09-18T01:48:55.433Z,19.71
2018-09-18T01:49:55.394Z,19.71
2018-09-18T01:50:55.360Z,19.73
2018-09-18T01:51:55.330Z,19.71
2018-09-18T01:52:55.301Z,19.64
2018-09-18T01:53:55.263Z,19.56
2018-09-18T01:54:55.228Z,19.63
2018-09-18T01:55:55.197Z,19.58
2018-09-18T01:56:55.161Z,19.56
2018-09-18T01:57:55.136Z,19.55
2018-09-18T01:58:55.099Z,19.55
2018-09-18T01:59:55.070Z,19.54
2018-09-18T02:00:55.035Z,19.58
2018-09-18T02:01:54.996Z,19.58
2018-09-18T02:02:54.964Z,19.56
2018-09-18T02:03:54.931Z,19.54
2018-09-18T02:04:54.906Z,19.44
2018-09-18T02:05:54.872Z,19.56
2018-09-18T02:06:54.841Z,19.54
2018-09-18T02:07:54.803Z,19.47
2018-09-18T02:08:54.766Z,19.49
2018-09-18T02:09:54.739Z,19.49
2018-09-18T02:10:54.703Z,19.37
2018-09-18T02:11:54.732Z,19.37
2018-09-18T02:12:54.643Z,19.34
2018-09-18T02:13:54.602Z,19.30
2018-09-18T02:14:54.568Z,19.40
2018-09-18T02:15:54.538Z,19.29
2018-09-18T02:16:54.503Z,19.26
2018-09-18T02:17:54.477Z,19.33
2018-09-18T02:18:54.442Z,19.26
2018-09-18T02:19:54.408Z,19.26
2018-09-18T02:20:54.383Z,19.29
2018-09-18T02:21:54.342Z,19.22
2018-09-18T02:22:54.310Z,19.11
2018-09-18T02:23:54.274Z,19.18
2018-09-18T02:24:54.244Z,19.18
2018-09-18T02:25:54.206Z,19.12
2018-09-18T02:26:54.175Z,18.99
2018-09-18T02:27:54.141Z,19.08
2018-09-18T02:28:54.106Z,19.09
2018-09-18T02:29:54.084Z,19.12
2018-09-18T02:30:54.043Z,19.02
2018-09-18T02:31:54.009Z,19.00
2018-09-18T02:32:53.979Z,19.08
2018-09-18T02:33:53.940Z,19.00
2018-09-18T02:34:53.914Z,18.93
2018-09-18T02:35:53.875Z,18.90
2018-09-18T02:36:53.843Z,18.92
2018-09-18T02:37:53.817Z,18.89
2018-09-18T02:38:53.777Z,18.88
2018-09-18T02:39:53.744Z,18.86
2018-09-18T02:40:53.707Z,18.81
2018-09-18T02:41:53.683Z,18.83
2018-09-18T02:42:53.646Z,18.86
2018-09-18T02:43:53.613Z,18.77
2018-09-18T02:44:53.584Z,18.73
2018-09-18T02:45:53.543Z,18.66
2018-09-18T02:46:53.509Z,18.60
2018-09-18T02:47:53.478Z,18.60
2018-09-18T02:48:53.443Z,18.70
2018-09-18T02:49:53.418Z,18.58
2018-09-18T02:50:53.381Z,18.63
2018-09-18T02:51:53.345Z,18.59
2018-09-18T02:52:53.317Z,18.71
2018-09-18T02:53:53.276Z,18.65
2018-09-18T02:54:53.243Z,18.62
2018-09-18T02:55:53.214Z,18.60
2018-09-18T02:56:53.182Z,18.60
2018-09-18T02:57:53.147Z,18.63
2018-09-18T02:58:53.112Z,18.59
2018-09-18T02:59:53.078Z,18.70
2018-09-18T03:00:53.043Z,18.59
2018-09-18T03:01:53.016Z,18.55
2018-09-18T03:02:52.982Z,18.56
2018-09-18T03:03:52.946Z,18.66
2018-09-18T03:04:52.917Z,18.56
2018-09-18T03:05:52.879Z,18.56
2018-09-18T03:06:52.844Z,18.60
2018-09-18T03:07:52.822Z,18.58
2018-09-18T03:08:52.776Z,18.58
2018-09-18T03:09:52.750Z,18.58
2018-09-18T03:10:52.714Z,18.65
2018-09-18T03:11:52.678Z,18.59
2018-09-18T03:12:52.644Z,18.56
2018-09-18T03:13:52.619Z,18.56
2018-09-18T03:14:52.580Z,18.53
2018-09-18T03:15:52.549Z,18.40
2018-09-18T03:16:52.517Z,18.44
2018-09-18T03:17:52.479Z,18.44
2018-09-18T03:18:52.446Z,18.43
2018-09-18T03:19:52.410Z,18.47
2018-09-18T03:20:52.436Z,18.50
2018-09-18T03:21:52.351Z,18.41
2018-09-18T03:22:52.312Z,18.50
2018-09-18T03:23:52.281Z,18.43
2018-09-18T03:24:52.247Z,18.41
2018-09-18T03:25:52.208Z,18.33
2018-09-18T03:26:52.177Z,18.34
2018-09-18T03:27:52.144Z,18.23
2018-09-18T03:28:52.115Z,18.19
2018-09-18T03:29:52.076Z,18.23
2018-09-18T03:30:52.043Z,18.18
2018-09-18T03:31:52.054Z,18.04
2018-09-18T03:32:51.973Z,18.07
2018-09-18T03:33:51.946Z,18.10
2018-09-18T03:34:51.911Z,18.03
2018-09-18T03:35:51.880Z,18.01
2018-09-18T03:36:51.845Z,18.04
2018-09-18T03:37:51.808Z,18.03
2018-09-18T03:38:51.773Z,17.98
2018-09-18T03:39:51.741Z,18.03
2018-09-18T03:40:51.707Z,18.00
2018-09-18T03:41:51.679Z,18.03
2018-09-18T03:42:51.641Z,18.05
2018-09-18T03:43:51.606Z,18.11
2018-09-18T03:44:51.572Z,18.03
2018-09-18T03:45:51.543Z,18.08
2018-09-18T03:46:51.507Z,18.07
2018-09-18T03:47:51.473Z,18.16
2018-09-18T03:48:51.449Z,18.13
2018-09-18T03:49:51.406Z,18.20
2018-09-18T03:50:51.370Z,18.22
2018-09-18T03:51:51.337Z,18.18
2018-09-18T03:52:51.305Z,18.13
2018-09-18T04:07:03.006Z,18.22
2018-09-18T04:08:02.924Z,18.25
2018-09-18T04:09:02.883Z,18.25
2018-09-18T04:10:02.845Z,18.31
2018-09-18T04:11:02.805Z,18.15
2018-09-18T04:12:02.766Z,18.10
2018-09-18T04:13:02.733Z,18.05
2018-09-18T04:14:02.697Z,18.10
2018-09-18T04:15:02.663Z,18.10
2018-09-18T04:16:02.633Z,18.18
2018-09-18T04:17:02.591Z,18.19
2018-09-18T04:18:02.553Z,18.11
2018-09-18T04:19:02.513Z,18.18
2018-09-18T04:20:02.495Z,18.18
2018-09-18T04:21:02.450Z,18.20
2018-09-18T04:22:02.411Z,18.20
2018-09-18T04:23:02.374Z,18.25
2018-09-18T04:24:02.339Z,18.18
2018-09-18T04:25:02.307Z,18.19
2018-09-18T04:26:02.276Z,18.26
2018-09-18T04:27:02.240Z,18.18
2018-09-18T04:28:02.206Z,18.29
2018-09-18T04:29:02.170Z,18.22
2018-09-18T04:30:02.136Z,18.19
2018-09-18T04:31:02.109Z,18.20
2018-09-18T04:32:02.066Z,18.20
2018-09-18T04:33:02.031Z,18.33
2018-09-18T04:34:01.998Z,18.33
2018-09-18T04:35:01.979Z,18.34
2018-09-18T04:36:01.926Z,18.40
2018-09-18T04:37:01.893Z,18.37
2018-09-18T04:38:01.862Z,18.43
2018-09-18T04:39:01.829Z,18.44
2018-09-18T04:40:01.796Z,18.40
2018-09-18T04:41:01.761Z,18.41
2018-09-18T04:42:01.723Z,18.38
2018-09-18T04:43:01.686Z,18.47
2018-09-18T04:44:01.654Z,18.43
2018-09-18T04:45:01.621Z,18.52
2018-09-18T04:46:01.618Z,18.44
2018-09-18T04:47:01.555Z,18.45
2018-09-18T04:48:01.524Z,18.47
2018-09-18T04:49:01.485Z,18.50
2018-09-18T04:50:01.453Z,18.41
2018-09-18T04:51:01.425Z,18.40
2018-09-18T04:52:01.389Z,18.41
2018-09-18T04:53:01.350Z,18.38
2018-09-18T04:54:01.314Z,18.31
2018-09-18T04:55:01.368Z,18.26
2018-09-18T04:56:01.246Z,18.25
2018-09-18T04:57:01.215Z,18.25
2018-09-18T04:58:01.181Z,18.33
2018-09-18T04:59:01.152Z,18.23
2018-09-18T05:00:01.115Z,18.20
2018-09-18T05:01:01.079Z,18.26
2018-09-18T05:02:01.093Z,18.07
2018-09-18T05:03:01.007Z,18.08
2018-09-18T05:04:00.973Z,18.07
2018-09-18T05:05:00.942Z,18.08
2018-09-18T05:06:00.917Z,18.00
2018-09-18T05:07:00.876Z,18.00
2018-09-18T05:08:00.837Z,18.01
2018-09-18T05:09:00.810Z,17.98
2018-09-18T05:10:00.784Z,17.95
2018-09-18T05:11:00.743Z,17.92
2018-09-18T05:12:00.708Z,17.86
2018-09-18T05:13:00.673Z,17.89
2018-09-18T05:14:00.749Z,17.92
2018-09-18T05:15:00.601Z,17.98
2018-09-18T05:16:00.573Z,17.94
2018-09-18T05:17:00.537Z,17.95
2018-09-18T05:18:00.503Z,17.89
2018-09-18T05:19:00.470Z,17.92
2018-09-18T05:20:00.442Z,17.86
2018-09-18T05:21:00.404Z,17.82
2018-09-18T05:22:00.364Z,17.90
2018-09-18T05:23:00.330Z,17.85
2018-09-18T05:24:00.299Z,17.82
2018-09-18T05:25:00.263Z,17.80
2018-09-18T05:26:00.231Z,17.83
2018-09-18T05:27:00.191Z,17.83
2018-09-18T05:28:00.157Z,17.89
2018-09-18T05:29:00.129Z,17.89
2018-09-18T05:30:00.094Z,17.80
2018-09-18T05:31:00.063Z,17.85
2018-09-18T05:32:00.027Z,17.92
2018-09-18T05:32:59.991Z,17.90
2018-09-18T05:33:59.956Z,18.01
2018-09-18T05:34:59.919Z,18.03
2018-09-18T05:35:59.886Z,18.07
2018-09-18T05:36:59.854Z,18.15
2018-09-18T05:37:59.826Z,18.05
2018-09-18T05:38:59.820Z,18.19
2018-09-18T05:39:59.751Z,18.22
2018-09-18T05:40:59.731Z,18.35
2018-09-18T05:41:59.722Z,18.35
2018-09-18T05:42:59.655Z,18.44
2018-09-18T05:43:59.622Z,18.47
2018-09-18T05:44:59.600Z,18.65
2018-09-18T05:45:59.549Z,18.66
2018-09-18T05:46:59.513Z,18.77
2018-09-18T05:47:59.523Z,18.98
2018-09-18T05:48:59.449Z,19.19
2018-09-18T05:49:59.420Z,19.16
2018-09-18T05:50:59.383Z,19.29
2018-09-18T05:51:59.351Z,19.26
2018-09-18T05:52:59.315Z,19.44
2018-09-18T05:53:59.282Z,19.34
2018-09-18T05:54:59.253Z,19.41
2018-09-18T05:55:59.214Z,19.40
2018-09-18T05:56:59.179Z,19.56
2018-09-18T05:57:59.143Z,19.70
2018-09-18T05:58:59.108Z,19.85
2018-09-18T05:59:59.075Z,19.91
2018-09-18T06:00:59.044Z,19.92
2018-09-18T06:01:59.011Z,20.09
2018-09-18T06:02:58.979Z,20.07
2018-09-18T06:03:58.946Z,20.10
2018-09-18T06:04:58.910Z,20.13
2018-09-18T06:05:58.874Z,20.18
2018-09-18T06:06:58.840Z,20.25
2018-09-18T06:07:58.805Z,20.31
2018-09-18T06:08:58.775Z,20.31
2018-09-18T06:09:58.764Z,20.34
2018-09-18T06:10:58.713Z,20.28
2018-09-18T06:11:58.672Z,20.36
2018-09-18T06:12:58.640Z,20.44
2018-09-18T06:13:58.613Z,20.44
2018-09-18T06:14:58.578Z,20.39
2018-09-18T06:15:58.549Z,20.48
2018-09-18T06:16:58.514Z,20.52
2018-09-18T06:17:58.476Z,20.58
2018-09-18T06:18:58.509Z,20.66
2018-09-18T06:19:58.408Z,20.60
2018-09-18T06:20:58.383Z,20.59
2018-09-18T06:21:58.345Z,20.70
2018-09-18T06:22:58.316Z,20.74
2018-09-18T06:23:58.283Z,20.75
2018-09-18T06:24:58.246Z,20.72
2018-09-18T06:25:58.209Z,20.87
2018-09-18T06:26:58.175Z,20.93
2018-09-18T06:27:58.147Z,20.97
2018-09-18T06:28:58.115Z,20.99
2018-09-18T06:29:58.080Z,20.95
2018-09-18T06:30:58.042Z,21.02
2018-09-18T06:31:58.010Z,21.05
2018-09-18T06:32:57.979Z,21.14
2018-09-18T06:33:57.952Z,21.18
2018-09-18T06:34:57.917Z,21.21
2018-09-18T06:35:57.884Z,21.27
2018-09-18T06:36:57.902Z,21.35
2018-09-18T06:37:57.816Z,21.37
2018-09-18T06:38:57.783Z,21.36
2018-09-18T06:39:57.751Z,21.33
2018-09-18T06:40:57.719Z,21.40
2018-09-18T06:41:57.688Z,21.42
2018-09-18T06:42:57.659Z,21.42
2018-09-18T06:43:57.618Z,21.37
2018-09-18T06:44:57.591Z,21.50
2018-09-18T06:45:57.557Z,21.62
2018-09-18T06:46:57.530Z,21.61
2018-09-18T06:47:57.536Z,21.61
2018-09-18T06:48:57.463Z,21.62
2018-09-18T06:49:57.426Z,21.80
2018-09-18T06:50:57.391Z,21.82
2018-09-18T06:51:57.362Z,21.88
2018-09-18T06:52:57.329Z,21.88
2018-09-18T06:53:57.298Z,21.89
2018-09-18T06:54:57.270Z,21.91
2018-09-18T06:55:57.240Z,22.00
2018-09-18T06:56:57.206Z,22.00
2018-09-18T06:57:57.173Z,22.08
2018-09-18T06:58:57.139Z,22.10
2018-09-18T06:59:57.107Z,22.11
2018-09-18T07:00:57.074Z,22.15
2018-09-18T07:01:57.040Z,22.32
2018-09-18T07:02:57.011Z,22.33
2018-09-18T07:03:56.972Z,22.39
2018-09-18T07:04:56.952Z,22.39
2018-09-18T07:05:56.915Z,22.41
2018-09-18T07:06:56.883Z,22.59
2018-09-18T07:07:56.856Z,22.59
2018-09-18T07:08:56.821Z,22.57
2018-09-18T07:09:56.785Z,22.62
2018-09-18T07:10:56.753Z,22.68
2018-09-18T07:11:56.720Z,22.65
2018-09-18T07:12:56.687Z,22.75
2018-09-18T07:13:56.658Z,22.70
2018-09-18T07:14:56.629Z,22.73
2018-09-18T07:15:56.591Z,22.84
2018-09-18T07:16:56.563Z,22.84
2018-09-18T07:17:56.543Z,22.83
2018-09-18T07:18:56.503Z,22.93
2018-09-18T07:19:56.468Z,22.98
2018-09-18T07:20:56.443Z,23.02
2018-09-18T07:21:56.406Z,23.09
2018-09-18T07:22:56.371Z,23.13
2018-09-18T07:23:56.340Z,23.13
2018-09-18T07:24:56.371Z,23.31
2018-09-18T07:25:56.283Z,23.32
2018-09-18T07:26:56.250Z,23.34
2018-09-18T07:27:56.220Z,23.39
2018-09-18T07:28:56.188Z,23.46
2018-09-18T07:29:56.153Z,23.54
2018-09-18T07:30:56.118Z,23.47
2018-09-18T07:31:56.098Z,23.54
2018-09-18T07:32:56.059Z,23.62
2018-09-18T07:33:56.096Z,23.56
2018-09-18T07:34:55.994Z,23.51
2018-09-18T07:35:55.962Z,23.55
2018-09-18T07:36:55.932Z,23.58
2018-09-18T07:37:55.905Z,23.58
2018-09-18T07:38:55.874Z,23.62
2018-09-18T07:39:55.839Z,23.74
2018-09-18T07:40:55.813Z,23.68
2018-09-18T07:41:55.780Z,23.73
2018-09-18T07:42:55.757Z,23.81
2018-09-18T07:43:55.719Z,23.76
2018-09-18T07:44:55.692Z,23.83
2018-09-18T07:45:55.655Z,23.84
2018-09-18T07:46:55.621Z,23.87
2018-09-18T07:47:55.597Z,23.88
2018-09-18T07:48:55.563Z,23.88
2018-09-18T07:49:55.533Z,23.98
2018-09-18T07:50:55.499Z,23.99
2018-09-18T07:51:55.466Z,24.05
2018-09-18T07:52:55.440Z,24.03
2018-09-18T07:53:55.413Z,24.11
2018-09-18T07:54:55.389Z,24.24
2018-09-18T07:55:55.350Z,24.26
2018-09-18T07:56:55.322Z,24.36
2018-09-18T07:57:55.287Z,24.21
2018-09-18T07:58:55.252Z,24.38
2018-09-18T07:59:55.224Z,24.39
2018-09-18T08:00:55.196Z,24.38
2018-09-18T08:01:55.168Z,24.43
2018-09-18T08:02:55.135Z,24.53
2018-09-18T08:03:55.099Z,24.51
2018-09-18T08:04:55.072Z,24.58
2018-09-18T08:05:55.043Z,24.65
2018-09-18T08:06:55.016Z,24.70
2018-09-18T08:07:54.998Z,24.65
2018-09-18T08:08:54.950Z,24.77
2018-09-18T08:09:54.921Z,24.61
2018-09-18T08:10:54.914Z,24.60
2018-09-18T08:11:54.857Z,24.69
2018-09-18T08:12:54.833Z,24.73
2018-09-18T08:13:54.804Z,24.80
2018-09-18T08:14:54.770Z,24.86
2018-09-18T08:15:54.796Z,25.06
2018-09-18T08:16:54.711Z,25.11
2018-09-18T08:17:54.678Z,24.99
2018-09-18T08:18:54.732Z,24.96
2018-09-18T08:19:54.620Z,25.11
2018-09-18T08:20:54.588Z,25.21
2018-09-18T08:21:54.599Z,25.35
2018-09-18T08:22:54.524Z,25.43
2018-09-18T08:23:54.501Z,25.43
2018-09-18T08:24:54.467Z,25.36
2018-09-18T08:25:54.441Z,25.36
2018-09-18T08:26:54.408Z,25.53
2018-09-18T08:27:54.377Z,25.53
2018-09-18T08:28:54.347Z,25.55
2018-09-18T08:29:54.314Z,25.55
2018-09-18T08:30:54.284Z,25.58
2018-09-18T08:31:54.251Z,25.62
2018-09-18T08:32:54.248Z,25.66
2018-09-18T08:33:54.198Z,25.77
2018-09-18T08:34:54.171Z,25.88
2018-09-18T08:35:54.136Z,25.84
2018-09-18T08:36:54.105Z,25.84
2018-09-18T08:37:54.078Z,25.93
2018-09-18T08:38:54.054Z,25.90
2018-09-18T08:39:54.073Z,25.95
2018-09-18T08:40:54.008Z,25.95
2018-09-18T08:41:53.955Z,25.88
2018-09-18T08:42:53.948Z,25.96
2018-09-18T08:43:53.896Z,26.06
2018-09-18T08:44:53.875Z,26.10
2018-09-18T08:45:53.842Z,26.16
2018-09-18T08:46:53.812Z,26.06
2018-09-18T08:47:53.783Z,26.09
2018-09-18T08:48:53.754Z,25.93
2018-09-18T08:49:53.727Z,25.95
2018-09-18T08:50:53.703Z,26.09
2018-09-18T08:51:53.679Z,26.00
2018-09-18T08:52:53.635Z,26.05
2018-09-18T08:53:53.631Z,26.09
2018-09-18T08:54:53.570Z,26.36
2018-09-18T08:55:53.552Z,26.43
2018-09-18T08:56:53.518Z,26.45
2018-09-18T08:57:53.493Z,26.48
2018-09-18T08:58:53.458Z,26.40
2018-09-18T08:59:53.429Z,26.43
2018-09-18T09:00:53.398Z,26.36
2018-09-18T09:01:53.384Z,26.29
2018-09-18T09:02:53.375Z,26.36
2018-09-18T09:03:53.379Z,26.34
2018-09-18T09:04:53.296Z,26.48
2018-09-18T09:05:53.327Z,26.43
2018-09-18T09:06:53.237Z,26.52
2018-09-18T09:07:53.273Z,26.53
2018-09-18T09:08:53.302Z,26.45
2018-09-18T09:09:53.147Z,26.52
2018-09-18T09:10:53.107Z,26.45
2018-09-18T09:11:53.083Z,26.43
2018-09-18T09:12:53.052Z,26.63
2018-09-18T09:13:53.016Z,26.58
2018-09-18T09:14:52.989Z,26.51
2018-09-18T09:15:52.971Z,26.43
2018-09-18T09:16:52.929Z,26.44
2018-09-18T09:17:52.904Z,26.45
2018-09-18T09:18:52.875Z,26.45
2018-09-18T09:19:52.848Z,26.51
2018-09-18T09:20:52.892Z,26.62
2018-09-18T09:21:52.901Z,26.59
2018-09-18T09:22:52.897Z,26.68
2018-09-18T09:23:52.751Z,26.65
2018-09-18T09:24:52.699Z,26.70
2018-09-18T09:25:52.670Z,26.68
2018-09-18T09:26:52.707Z,26.71
2018-09-18T09:27:52.651Z,26.75
2018-09-18T09:28:52.585Z,26.74
2018-09-18T09:29:52.626Z,26.81
2018-09-18T09:30:52.546Z,26.84
2018-09-18T09:31:52.501Z,26.88
2018-09-18T09:32:52.468Z,26.93
2018-09-18T09:33:52.437Z,26.99
2018-09-18T09:34:52.406Z,27.10
2018-09-18T09:35:52.390Z,27.20
2018-09-18T09:36:52.373Z,27.18
2018-09-18T09:37:52.330Z,27.22
2018-09-18T09:38:52.313Z,27.17
2018-09-18T09:39:52.265Z,27.22
2018-09-18T09:40:52.239Z,27.08
2018-09-18T09:41:52.212Z,27.07
2018-09-18T09:42:52.183Z,27.14
2018-09-18T09:43:52.196Z,27.21
2018-09-18T09:44:52.144Z,27.29
2018-09-18T09:45:52.131Z,27.32
2018-09-18T09:46:52.064Z,27.29
2018-09-18T09:47:52.040Z,27.52
2018-09-18T09:48:52.009Z,27.26
2018-09-18T09:49:51.984Z,27.30
2018-09-18T09:50:51.957Z,27.44
2018-09-18T09:51:51.927Z,27.54
2018-09-18T09:52:51.901Z,27.58
2018-09-18T09:53:51.871Z,27.60
2018-09-18T09:54:51.835Z,27.51
2018-09-18T09:55:51.812Z,27.58
2018-09-18T09:56:51.801Z,27.52
2018-09-18T09:57:51.751Z,27.59
2018-09-18T09:58:51.722Z,27.67
2018-09-18T09:59:51.692Z,27.78
2018-09-18T10:00:51.666Z,27.80
2018-09-18T10:01:51.643Z,27.68
2018-09-18T10:02:51.660Z,27.77
2018-09-18T10:03:51.586Z,27.64
2018-09-18T10:04:51.561Z,27.68
2018-09-18T10:05:51.527Z,27.83
2018-09-18T10:06:51.493Z,27.83
2018-09-18T10:21:27.981Z,27.95
2018-09-18T10:22:27.918Z,28.05
2018-09-18T10:23:27.909Z,28.02
2018-09-18T10:24:27.862Z,28.19
2018-09-18T10:25:27.847Z,28.19
2018-09-18T10:26:27.944Z,28.27
2018-09-18T10:27:27.772Z,28.22
2018-09-18T10:28:27.727Z,28.20
2018-09-18T10:29:27.701Z,28.19
2018-09-18T10:30:27.680Z,28.26
2018-09-18T10:31:27.642Z,28.17
2018-09-18T10:32:27.656Z,28.25
2018-09-18T10:33:27.590Z,28.33
2018-09-18T10:34:27.576Z,28.32
2018-09-18T10:35:27.542Z,28.47
2018-09-18T10:36:27.512Z,28.32
2018-09-18T10:37:27.463Z,28.38
2018-09-18T10:38:27.457Z,28.26
2018-09-18T10:39:27.408Z,28.35
2018-09-18T10:40:27.373Z,28.42
2018-09-18T10:41:27.517Z,28.35
2018-09-18T10:42:27.321Z,28.41
2018-09-18T10:43:27.325Z,28.27
2018-09-18T10:44:27.265Z,28.44
2018-09-18T10:45:27.237Z,28.42
2018-09-18T10:46:27.207Z,28.59
2018-09-18T10:47:27.197Z,28.48
2018-09-18T10:48:27.152Z,28.48
2018-09-18T10:49:27.137Z,28.41
2018-09-18T10:50:27.095Z,28.44
2018-09-18T10:51:27.080Z,28.44
2018-09-18T10:52:27.032Z,28.48
2018-09-18T10:53:27.009Z,28.51
2018-09-18T10:54:26.981Z,28.48
2018-09-18T10:55:27.008Z,28.62
2018-09-18T10:56:26.928Z,28.67
2018-09-18T10:57:26.902Z,28.63
2018-09-18T10:58:26.871Z,28.70
2018-09-18T10:59:26.845Z,28.60
2018-09-18T11:00:26.810Z,28.69
2018-09-18T11:01:26.793Z,28.74
2018-09-18T11:02:26.759Z,28.76
2018-09-18T11:03:26.735Z,28.69
2018-09-18T11:04:26.698Z,28.67
2018-09-18T11:05:26.676Z,28.69
2018-09-18T11:06:26.670Z,28.78
2018-09-18T11:07:26.630Z,28.79
2018-09-18T11:08:26.683Z,29.04
2018-09-18T11:09:26.581Z,29.23
2018-09-18T11:10:26.547Z,29.34
2018-09-18T11:11:26.547Z,29.20
2018-09-18T11:12:26.507Z,29.23
2018-09-18T11:13:26.470Z,29.39
2018-09-18T11:14:26.442Z,29.69
2018-09-18T11:15:26.405Z,29.69
2018-09-18T11:16:26.409Z,29.71
2018-09-18T11:17:26.391Z,29.79
2018-09-18T11:18:26.382Z,29.57
2018-09-18T11:19:26.295Z,29.47
2018-09-18T11:20:26.281Z,29.23
2018-09-18T11:21:26.300Z,29.22
2018-09-18T11:22:26.304Z,29.26
2018-09-18T11:23:26.287Z,29.24
2018-09-18T11:24:26.261Z,29.27
2018-09-18T11:25:26.189Z,29.27
2018-09-18T11:26:26.140Z,29.20
2018-09-18T11:27:26.075Z,29.45
2018-09-18T11:28:26.045Z,29.32
2018-09-18T11:29:26.036Z,29.51
2018-09-18T11:30:25.989Z,29.60
2018-09-18T11:31:25.978Z,29.57
2018-09-18T11:32:25.950Z,29.73
2018-09-18T11:33:25.905Z,29.81
2018-09-18T11:34:25.879Z,29.81
2018-09-18T11:35:25.853Z,29.86
2018-09-18T11:36:25.822Z,29.82
2018-09-18T11:37:25.796Z,29.79
2018-09-18T11:38:25.768Z,29.84
2018-09-18T11:39:25.740Z,29.84
2018-09-18T11:40:25.717Z,29.69
2018-09-18T11:41:25.695Z,29.56
2018-09-18T11:42:25.662Z,29.57
2018-09-18T11:43:25.637Z,29.57
2018-09-18T11:44:25.603Z,29.42
2018-09-18T11:45:25.618Z,29.42
2018-09-18T11:46:25.554Z,29.41
2018-09-18T11:47:25.523Z,29.41
2018-09-18T11:48:25.502Z,29.56
2018-09-18T11:49:25.473Z,29.73
2018-09-18T11:50:25.447Z,29.79
2018-09-18T11:51:25.521Z,29.78
2018-09-18T11:52:25.395Z,29.90
2018-09-18T11:53:25.365Z,29.82
2018-09-18T11:54:25.354Z,29.81
2018-09-18T11:55:25.328Z,29.78
2018-09-18T11:56:25.285Z,29.72
2018-09-18T11:57:25.256Z,29.88
2018-09-18T11:58:25.304Z,29.88
2018-09-18T11:59:25.226Z,29.84
2018-09-18T12:00:25.215Z,29.79
2018-09-18T12:01:25.151Z,29.91
2018-09-18T12:02:25.125Z,29.95
2018-09-18T12:03:25.101Z,30.03
2018-09-18T12:04:25.068Z,29.95
2018-09-18T12:05:25.041Z,30.06
2018-09-18T12:06:25.018Z,30.06
2018-09-18T12:07:24.991Z,30.00
2018-09-18T12:08:24.960Z,29.95
2018-09-18T12:09:24.933Z,30.13
2018-09-18T12:10:24.908Z,30.15
2018-09-18T12:11:24.937Z,30.00
2018-09-18T12:12:24.857Z,30.02
2018-09-18T12:13:24.829Z,29.97
2018-09-18T12:14:24.803Z,29.98
2018-09-18T12:15:24.778Z,29.87
2018-09-18T12:16:25.042Z,29.81
2018-09-18T12:17:25.542Z,29.82
2018-09-18T12:18:24.695Z,29.81
2018-09-18T12:19:24.666Z,29.86
2018-09-18T12:20:24.650Z,29.88
2018-09-18T12:21:24.616Z,29.90
2018-09-18T12:22:24.619Z,29.82
2018-09-18T12:23:24.560Z,29.95
2018-09-18T12:24:24.548Z,29.90
2018-09-18T12:25:24.511Z,29.94
2018-09-18T12:26:24.487Z,30.02
2018-09-18T12:27:24.462Z,30.06
2018-09-18T12:28:24.428Z,29.88
2018-09-18T12:29:24.404Z,29.90
2018-09-18T12:30:24.380Z,29.81
2018-09-18T12:31:24.345Z,29.90
2018-09-18T12:32:24.329Z,29.87
2018-09-18T12:33:24.295Z,29.73
2018-09-18T12:34:24.268Z,29.69
2018-09-18T12:35:24.314Z,29.75
2018-09-18T12:36:24.218Z,29.78
2018-09-18T12:37:24.193Z,29.87
2018-09-18T12:38:24.163Z,29.86
2018-09-18T12:39:24.136Z,30.10
2018-09-18T12:40:24.106Z,30.15
2018-09-18T12:41:24.173Z,30.27
2018-09-18T12:42:24.163Z,30.25
2018-09-18T12:43:24.048Z,30.19
2018-09-18T12:44:24.006Z,30.32
2018-09-18T12:45:23.975Z,30.48
2018-09-18T12:46:23.948Z,30.51
2018-09-18T12:47:23.923Z,30.43
2018-09-18T12:48:23.893Z,30.39
2018-09-18T12:49:23.894Z,30.25
2018-09-18T12:50:24.044Z,30.06
2018-09-18T12:51:23.835Z,30.08
2018-09-18T12:52:23.791Z,29.93
2018-09-18T12:53:23.761Z,30.00
2018-09-18T12:54:23.734Z,30.00
2018-09-18T12:55:23.704Z,30.00
2018-09-18T12:56:23.685Z,29.81
2018-09-18T12:57:23.737Z,29.84
2018-09-18T12:58:23.694Z,29.78
2018-09-18T12:59:23.730Z,29.75
2018-09-18T13:00:23.625Z,29.84
2018-09-18T13:01:23.548Z,29.76
2018-09-18T13:02:23.553Z,29.71
2018-09-18T13:03:23.492Z,29.72
2018-09-18T13:04:23.471Z,29.66
2018-09-18T13:05:23.446Z,29.78
2018-09-18T13:06:23.491Z,29.78
2018-09-18T13:07:23.416Z,29.82
2018-09-18T13:08:23.360Z,29.79
2018-09-18T13:09:23.336Z,29.72
2018-09-18T13:10:23.308Z,29.91
2018-09-18T13:11:23.288Z,29.97
2018-09-18T13:12:23.289Z,29.97
2018-09-18T13:13:23.228Z,30.09
2018-09-18T13:14:23.204Z,30.03
2018-09-18T13:15:23.182Z,30.12
2018-09-18T13:16:23.155Z,30.12
2018-09-18T13:17:23.136Z,30.13
2018-09-18T13:18:23.112Z,30.08
2018-09-18T13:19:23.071Z,30.23